sensor_id;sensor_type;location;lat;lon;timestamp;P1;P4;P2;P0;N10;N4;N25;N1;N05;TS
83101;SPS30;72973;51.784;4.660;2024-03-25T00:02:39;9.99;8.92;6.81;4.03;32.12;32.08;31.78;29.27;21.62;0.84
83101;SPS30;72973;51.784;4.660;2024-03-25T00:07:33;9.39;8.41;6.50;3.95;31.48;31.44;31.16;28.87;21.64;0.84
83101;SPS30;72973;51.784;4.660;2024-03-25T00:09:59;11.37;10.12;7.67;4.45;35.50;35.45;35.09;32.18;23.50;0.86
83101;SPS30;72973;51.784;4.660;2024-03-25T00:12:26;9.84;8.82;6.82;4.15;33.10;33.06;32.77;30.38;22.79;0.82
83101;SPS30;72973;51.784;4.660;2024-03-25T00:14:52;9.58;8.57;6.58;3.94;31.44;31.39;31.11;28.74;21.38;0.83
83101;SPS30;72973;51.784;4.660;2024-03-25T00:17:19;9.05;8.15;6.38;4.01;31.99;31.95;31.69;29.58;22.55;0.80
83101;SPS30;72973;51.784;4.660;2024-03-25T00:19:48;8.16;7.35;5.77;3.64;29.07;29.03;28.81;26.91;20.58;0.79
83101;SPS30;72973;51.784;4.660;2024-03-25T00:22:18;8.04;7.26;5.74;3.68;29.36;29.33;29.11;27.28;21.01;0.77
83101;SPS30;72973;51.784;4.660;2024-03-25T00:24:45;8.31;7.51;5.92;3.78;30.17;30.13;29.90;28.00;21.53;0.76
83101;SPS30;72973;51.784;4.660;2024-03-25T00:27:12;8.78;7.88;6.11;3.75;29.89;29.85;29.59;27.48;20.70;0.82
83101;SPS30;72973;51.784;4.660;2024-03-25T00:29:39;9.12;8.20;6.38;3.96;31.58;31.54;31.28;29.11;22.06;0.81
83101;SPS30;72973;51.784;4.660;2024-03-25T00:32:06;9.88;8.89;6.93;4.32;34.44;34.40;34.11;31.78;24.12;0.80
83101;SPS30;72973;51.784;4.660;2024-03-25T00:34:33;10.04;9.05;7.09;4.46;35.59;35.55;35.26;32.92;25.13;0.79
83101;SPS30;72973;51.784;4.660;2024-03-25T00:37:00;9.54;8.59;6.72;4.22;33.65;33.61;33.34;31.11;23.71;0.80
83101;SPS30;72973;51.784;4.660;2024-03-25T00:39:27;10.40;9.34;7.27;4.50;35.91;35.86;35.56;33.09;25.05;0.80
83101;SPS30;72973;51.784;4.660;2024-03-25T00:41:53;10.05;9.04;7.03;4.36;34.76;34.72;34.43;32.04;24.26;0.79
83101;SPS30;72973;51.784;4.660;2024-03-25T00:44:20;10.20;9.17;7.13;4.41;35.17;35.13;34.84;32.40;24.51;0.82
83101;SPS30;72973;51.784;4.660;2024-03-25T00:46:46;9.61;8.62;6.66;4.06;32.40;32.36;32.08;29.75;22.34;0.82
83101;SPS30;72973;51.784;4.660;2024-03-25T00:49:13;10.26;9.19;7.07;4.27;34.08;34.04;33.74;31.22;23.33;0.82
83101;SPS30;72973;51.784;4.660;2024-03-25T00:51:39;10.79;9.63;7.35;4.33;34.52;34.48;34.15;31.43;23.16;0.85
83101;SPS30;72973;51.784;4.660;2024-03-25T00:54:07;10.46;9.36;7.20;4.33;34.56;34.52;34.21;31.63;23.59;0.84
83101;SPS30;72973;51.784;4.660;2024-03-25T00:56:33;7.82;7.08;5.62;3.64;29.02;28.99;28.78;27.03;20.92;0.78
83101;SPS30;72973;51.784;4.660;2024-03-25T00:59:00;7.91;7.15;5.66;3.64;29.04;29.01;28.79;27.00;20.83;0.79
83101;SPS30;72973;51.784;4.660;2024-03-25T01:01:29;8.53;7.69;6.04;3.81;30.43;30.40;30.16;28.18;21.55;0.80
83101;SPS30;72973;51.784;4.660;2024-03-25T01:03:56;9.20;8.26;6.42;3.96;31.59;31.55;31.29;29.09;21.98;0.80
83101;SPS30;72973;51.784;4.660;2024-03-25T01:06:23;9.81;8.79;6.78;4.10;32.74;32.70;32.41;30.01;22.46;0.81
83101;SPS30;72973;51.784;4.660;2024-03-25T01:08:50;9.59;8.54;6.47;3.75;29.91;29.87;29.57;27.11;19.79;0.85
83101;SPS30;72973;51.784;4.660;2024-03-25T01:11:17;9.82;8.74;6.61;3.81;30.40;30.36;30.05;27.52;20.03;0.85
83101;SPS30;72973;51.784;4.660;2024-03-25T01:13:43;9.59;8.51;6.40;3.63;28.99;28.94;28.64;26.13;18.84;0.85
83101;SPS30;72973;51.784;4.660;2024-03-25T01:16:10;9.33;8.31;6.30;3.65;29.12;29.08;28.79;26.40;19.28;0.83
83101;SPS30;72973;51.784;4.660;2024-03-25T01:18:37;9.11;8.11;6.14;3.54;28.25;28.21;27.93;25.58;18.63;0.84
83101;SPS30;72973;51.784;4.660;2024-03-25T01:21:03;10.01;8.88;6.66;3.75;29.94;29.89;29.57;26.94;19.34;0.86
83101;SPS30;72973;51.784;4.660;2024-03-25T01:23:30;10.41;9.23;6.89;3.84;30.66;30.61;30.28;27.51;19.61;0.88
83101;SPS30;72973;51.784;4.660;2024-03-25T01:25:57;10.61;9.40;7.00;3.88;30.97;30.92;30.58;27.74;19.70;0.88
83101;SPS30;72973;51.784;4.660;2024-03-25T01:28:23;10.24;9.08;6.79;3.80;30.27;30.23;29.90;27.18;19.41;0.86
83101;SPS30;72973;51.784;4.660;2024-03-25T01:30:49;9.96;8.84;6.64;3.77;30.05;30.00;29.69;27.08;19.51;0.86
83101;SPS30;72973;51.784;4.660;2024-03-25T01:33:16;9.76;8.65;6.45;3.59;28.64;28.60;28.28;25.68;18.28;0.88
83101;SPS30;72973;51.784;4.660;2024-03-25T01:35:42;9.90;8.74;6.47;3.52;28.04;27.99;27.66;24.97;17.50;0.90
83101;SPS30;72973;51.784;4.660;2024-03-25T01:38:08;10.20;8.99;6.62;3.53;28.18;28.13;27.79;24.98;17.30;0.92
83101;SPS30;72973;51.784;4.660;2024-03-25T01:40:35;9.79;8.65;6.42;3.51;28.02;27.97;27.65;25.01;17.61;0.90
83101;SPS30;72973;51.784;4.660;2024-03-25T01:43:02;10.03;8.86;6.58;3.60;28.73;28.68;28.35;25.64;18.07;0.89
83101;SPS30;72973;51.784;4.660;2024-03-25T01:45:30;10.42;9.21;6.83;3.73;29.71;29.66;29.32;26.50;18.63;0.88
83101;SPS30;72973;51.784;4.660;2024-03-25T01:48:01;9.87;8.74;6.52;3.62;28.85;28.81;28.49;25.85;18.37;0.88
83101;SPS30;72973;51.784;4.660;2024-03-25T01:51:06;9.34;8.31;6.30;3.65;29.09;29.05;28.76;26.37;19.24;0.84
83101;SPS30;72973;51.784;4.660;2024-03-25T01:53:25;9.14;8.14;6.18;3.60;28.74;28.70;28.42;26.08;19.10;0.84
83101;SPS30;72973;51.784;4.660;2024-03-25T01:55:55;9.84;8.73;6.54;3.68;29.35;29.30;28.99;26.39;18.92;0.86
83101;SPS30;72973;51.784;4.660;2024-03-25T01:58:25;9.58;8.51;6.41;3.65;29.11;29.07;28.77;26.27;18.98;0.86
83101;SPS30;72973;51.784;4.660;2024-03-25T02:00:54;9.66;8.61;6.53;3.80;30.30;30.26;29.96;27.49;20.11;0.85
83101;SPS30;72973;51.784;4.660;2024-03-25T02:03:21;9.99;8.89;6.74;3.90;31.13;31.08;30.77;28.21;20.59;0.85
83101;SPS30;72973;51.784;4.660;2024-03-25T02:05:52;10.92;9.67;7.21;3.99;31.85;31.80;31.45;28.52;20.25;0.88
83101;SPS30;72973;51.784;4.660;2024-03-25T02:08:23;11.02;9.78;7.35;4.16;33.18;33.13;32.78;29.89;21.52;0.85
83101;SPS30;72973;51.784;4.660;2024-03-25T02:10:52;10.47;9.31;7.04;4.05;32.32;32.27;31.95;29.25;21.27;0.84
83101;SPS30;72973;51.784;4.660;2024-03-25T02:13:21;9.83;8.73;6.56;3.73;29.72;29.67;29.36;26.79;19.32;0.86
83101;SPS30;72973;51.784;4.660;2024-03-25T02:15:47;9.50;8.45;6.39;3.68;29.34;29.30;29.00;26.55;19.31;0.85
83101;SPS30;72973;51.784;4.660;2024-03-25T02:18:17;9.14;8.16;6.23;3.68;29.33;29.29;29.01;26.71;19.71;0.83
83101;SPS30;72973;51.784;4.660;2024-03-25T02:20:44;8.84;7.91;6.09;3.66;29.19;29.16;28.89;26.71;19.91;0.83
83101;SPS30;72973;51.784;4.660;2024-03-25T02:23:11;9.41;8.36;6.30;3.60;28.74;28.70;28.40;25.96;18.80;0.88
83101;SPS30;72973;51.784;4.660;2024-03-25T02:25:39;9.59;8.53;6.45;3.72;29.66;29.61;29.32;26.84;19.53;0.87
83101;SPS30;72973;51.784;4.660;2024-03-25T02:28:08;8.30;7.42;5.67;3.37;26.89;26.85;26.60;24.53;18.16;0.84
83101;SPS30;72973;51.784;4.660;2024-03-25T02:30:35;8.49;7.58;5.81;3.46;27.61;27.57;27.32;25.20;18.69;0.84
83101;SPS30;72973;51.784;4.660;2024-03-25T02:33:02;8.80;7.87;6.02;3.58;28.55;28.52;28.25;26.05;19.30;0.83
83101;SPS30;72973;51.784;4.660;2024-03-25T02:35:29;8.16;7.32;5.65;3.44;27.46;27.42;27.18;25.20;18.91;0.82
83101;SPS30;72973;51.784;4.660;2024-03-25T02:37:56;8.42;7.52;5.76;3.42;27.27;27.24;26.98;24.88;18.42;0.84
83101;SPS30;72973;51.784;4.660;2024-03-25T02:40:23;8.33;7.45;5.73;3.44;27.43;27.39;27.14;25.08;18.68;0.83
83101;SPS30;72973;51.784;4.660;2024-03-25T02:42:50;8.40;7.51;5.76;3.44;27.47;27.43;27.18;25.10;18.65;0.83
83101;SPS30;72973;51.784;4.660;2024-03-25T02:45:17;7.67;6.90;5.40;3.39;27.07;27.03;26.82;25.02;19.08;0.81
83101;SPS30;72973;51.784;4.660;2024-03-25T02:47:43;7.92;7.12;5.53;3.42;27.27;27.23;27.00;25.11;18.99;0.84
83101;SPS30;72973;51.784;4.660;2024-03-25T02:50:10;7.54;6.78;5.30;3.30;26.36;26.33;26.12;24.34;18.50;0.83
83101;SPS30;72973;51.784;4.660;2024-03-25T02:52:36;6.63;6.01;4.79;3.13;25.00;24.98;24.80;23.33;18.14;0.77
83101;SPS30;72973;51.784;4.660;2024-03-25T02:55:02;6.43;5.87;4.75;3.22;25.66;25.64;25.48;24.13;19.05;0.75
83101;SPS30;72973;51.784;4.660;2024-03-25T02:57:29;6.29;5.73;4.63;3.12;24.86;24.84;24.68;23.35;18.39;0.74
83101;SPS30;72973;51.784;4.660;2024-03-25T02:59:55;7.14;6.47;5.16;3.38;26.98;26.95;26.76;25.19;19.60;0.76
83101;SPS30;72973;51.784;4.660;2024-03-25T03:02:22;6.24;5.66;4.52;2.96;23.64;23.62;23.45;22.08;17.20;0.77
83101;SPS30;72973;51.784;4.660;2024-03-25T03:04:48;6.55;5.95;4.76;3.13;25.00;24.98;24.80;23.37;18.23;0.77
83101;SPS30;72973;51.784;4.660;2024-03-25T03:07:15;6.54;5.95;4.78;3.18;25.36;25.34;25.17;23.76;18.62;0.77
83101;SPS30;72973;51.784;4.660;2024-03-25T03:09:41;6.58;5.99;4.83;3.24;25.84;25.81;25.65;24.25;19.07;0.76
83101;SPS30;72973;51.784;4.660;2024-03-25T03:12:08;6.01;5.48;4.46;3.04;24.23;24.20;24.05;22.82;18.07;0.75
83101;SPS30;72973;51.784;4.660;2024-03-25T03:14:34;5.89;5.37;4.36;2.95;23.56;23.54;23.39;22.16;17.51;0.76
83101;SPS30;72973;51.784;4.660;2024-03-25T03:17:01;6.21;5.66;4.57;3.08;24.54;24.51;24.36;23.05;18.15;0.76
83101;SPS30;72973;51.784;4.660;2024-03-25T03:19:31;5.64;5.14;4.16;2.81;22.42;22.40;22.26;21.08;16.63;0.75
83101;SPS30;72973;51.784;4.660;2024-03-25T03:21:57;5.16;4.72;3.85;2.64;21.07;21.05;20.93;19.88;15.79;0.74
83101;SPS30;72973;51.784;4.660;2024-03-25T03:24:24;4.92;4.50;3.66;2.50;19.96;19.94;19.82;18.81;14.91;0.75
83101;SPS30;72973;51.784;4.660;2024-03-25T03:26:50;5.48;4.98;4.00;2.65;21.18;21.16;21.02;19.84;15.53;0.77
83101;SPS30;72973;51.784;4.660;2024-03-25T03:29:16;5.40;4.92;3.99;2.70;21.53;21.51;21.37;20.25;15.98;0.75
83101;SPS30;72973;51.784;4.660;2024-03-25T03:31:44;5.19;4.73;3.82;2.58;20.58;20.56;20.43;19.34;15.25;0.75
83101;SPS30;72973;51.784;4.660;2024-03-25T03:34:10;5.83;5.28;4.21;2.76;22.03;22.01;21.85;20.57;16.00;0.79
83101;SPS30;72973;51.784;4.660;2024-03-25T03:36:36;6.05;5.47;4.34;2.80;22.37;22.34;22.18;20.82;16.10;0.79
83101;SPS30;72973;51.784;4.660;2024-03-25T03:39:03;4.89;4.45;3.58;2.40;19.12;19.10;18.98;17.94;14.09;0.77
83101;SPS30;72973;51.784;4.660;2024-03-25T03:41:29;5.29;4.82;3.88;2.59;20.67;20.65;20.51;19.38;15.22;0.77
83101;SPS30;72973;51.784;4.660;2024-03-25T03:43:55;5.06;4.61;3.71;2.49;19.86;19.84;19.71;18.64;14.65;0.77
83101;SPS30;72973;51.784;4.660;2024-03-25T03:46:22;5.79;5.28;4.28;2.90;23.17;23.14;23.00;21.79;17.22;0.76
83101;SPS30;72973;51.784;4.660;2024-03-25T03:48:48;5.05;4.60;3.72;2.50;19.97;19.95;19.82;18.76;14.78;0.74
83101;SPS30;72973;51.784;4.660;2024-03-25T03:51:14;5.87;5.36;4.38;3.01;24.00;23.98;23.83;22.64;17.99;0.72
83101;SPS30;72973;51.784;4.660;2024-03-25T03:53:41;5.58;5.11;4.19;2.91;23.23;23.21;23.08;21.97;17.53;0.71
83101;SPS30;72973;51.784;4.660;2024-03-25T03:56:07;4.30;3.96;3.28;2.33;18.58;18.57;18.47;17.65;14.21;0.70
83101;SPS30;72973;51.784;4.660;2024-03-25T03:58:34;4.39;4.03;3.32;2.33;18.56;18.54;18.44;17.58;14.08;0.72
83101;SPS30;72973;51.784;4.660;2024-03-25T04:01:00;5.28;4.81;3.88;2.60;20.71;20.69;20.56;19.43;15.27;0.76
83101;SPS30;72973;51.784;4.660;2024-03-25T04:03:26;4.95;4.49;3.59;2.37;18.91;18.89;18.76;17.68;13.80;0.77
83101;SPS30;72973;51.784;4.660;2024-03-25T04:05:53;5.74;5.21;4.17;2.74;21.90;21.87;21.72;20.47;15.97;0.77
83101;SPS30;72973;51.784;4.660;2024-03-25T04:08:19;5.35;4.87;3.94;2.66;21.24;21.22;21.08;19.96;15.74;0.75
83101;SPS30;72973;51.784;4.660;2024-03-25T04:10:46;5.29;4.83;3.92;2.68;21.35;21.33;21.20;20.11;15.93;0.74
83101;SPS30;72973;51.784;4.660;2024-03-25T04:13:12;5.82;5.31;4.30;2.92;23.32;23.29;23.15;21.94;17.34;0.75
83101;SPS30;72973;51.784;4.660;2024-03-25T04:15:39;5.53;5.07;4.16;2.90;23.10;23.08;22.95;21.85;17.45;0.73
83101;SPS30;72973;51.784;4.660;2024-03-25T04:18:07;4.97;4.61;3.88;2.84;22.68;22.66;22.56;21.67;17.66;0.69
83101;SPS30;72973;51.784;4.660;2024-03-25T04:20:40;4.78;4.44;3.79;2.84;22.63;22.61;22.52;21.72;17.84;0.67
83101;SPS30;72973;51.784;4.660;2024-03-25T04:23:07;4.83;4.48;3.80;2.81;22.43;22.42;22.31;21.48;17.57;0.69
83101;SPS30;72973;51.784;4.660;2024-03-25T04:25:34;5.09;4.69;3.92;2.82;22.50;22.48;22.37;21.43;17.34;0.70
83101;SPS30;72973;51.784;4.660;2024-03-25T04:28:03;5.14;4.77;4.04;3.00;23.90;23.89;23.78;22.90;18.74;0.67
83101;SPS30;72973;51.784;4.660;2024-03-25T04:30:32;4.81;4.47;3.82;2.85;22.78;22.76;22.67;21.86;17.96;0.67
83101;SPS30;72973;51.784;4.660;2024-03-25T04:32:59;4.59;4.25;3.59;2.63;21.01;20.99;20.89;20.08;16.38;0.69
83101;SPS30;72973;51.784;4.660;2024-03-25T04:35:26;4.87;4.54;3.87;2.90;23.14;23.13;23.03;22.21;18.25;0.67
83101;SPS30;72973;51.784;4.660;2024-03-25T04:37:53;4.62;4.32;3.73;2.85;22.72;22.71;22.62;21.90;18.12;0.67
83101;SPS30;72973;51.784;4.660;2024-03-25T04:40:21;4.07;3.82;3.32;2.57;20.51;20.50;20.42;19.80;16.46;0.66
83101;SPS30;72973;51.784;4.660;2024-03-25T04:42:48;4.25;4.00;3.51;2.76;22.02;22.01;21.93;21.33;17.82;0.66
83101;SPS30;72973;51.784;4.660;2024-03-25T04:45:15;4.78;4.50;3.97;3.14;25.08;25.06;24.98;24.32;20.36;0.67
83101;SPS30;72973;51.784;4.660;2024-03-25T04:47:41;4.32;4.06;3.54;2.76;22.01;22.00;21.93;21.28;17.73;0.67
83101;SPS30;72973;51.784;4.660;2024-03-25T04:50:08;4.73;4.42;3.82;2.92;23.28;23.27;23.18;22.43;18.56;0.67
83101;SPS30;72973;51.784;4.660;2024-03-25T04:52:35;4.77;4.44;3.80;2.86;22.86;22.84;22.75;21.96;18.08;0.65
83101;SPS30;72973;51.784;4.660;2024-03-25T04:55:01;4.24;3.99;3.49;2.72;21.72;21.71;21.63;21.01;17.52;0.65
83101;SPS30;72973;51.784;4.660;2024-03-25T04:57:28;4.58;4.35;3.88;3.14;25.05;25.04;24.97;24.39;20.56;0.63
83101;SPS30;72973;51.784;4.660;2024-03-25T04:59:55;4.12;3.91;3.50;2.85;22.74;22.73;22.66;22.15;18.71;0.64
83101;SPS30;72973;51.784;4.660;2024-03-25T05:02:21;4.52;4.30;3.86;3.15;25.15;25.14;25.07;24.52;20.73;0.65
83101;SPS30;72973;51.784;4.660;2024-03-25T05:04:47;3.97;3.81;3.49;2.94;23.48;23.47;23.42;23.01;19.64;0.62
83101;SPS30;72973;51.784;4.660;2024-03-25T05:07:14;3.87;3.71;3.41;2.87;22.92;22.91;22.86;22.46;19.18;0.63
83101;SPS30;72973;51.784;4.660;2024-03-25T05:09:40;4.74;4.53;4.13;3.45;27.53;27.52;27.46;26.94;22.94;0.62
83101;SPS30;72973;51.784;4.660;2024-03-25T05:12:06;4.60;4.41;4.03;3.38;27.02;27.01;26.95;26.46;22.57;0.62
83101;SPS30;72973;51.784;4.660;2024-03-25T05:14:33;4.53;4.36;4.01;3.40;27.15;27.14;27.08;26.64;22.78;0.61
83101;SPS30;72973;51.784;4.660;2024-03-25T05:16:59;4.24;4.08;3.76;3.20;25.51;25.50;25.45;25.04;21.43;0.60
83101;SPS30;72973;51.784;4.660;2024-03-25T05:19:27;4.87;4.68;4.29;3.61;28.81;28.80;28.73;28.23;24.10;0.61
83101;SPS30;72973;51.784;4.660;2024-03-25T05:21:54;5.00;4.77;4.31;3.56;28.40;28.39;28.32;27.74;23.54;0.63
83101;SPS30;72973;51.784;4.660;2024-03-25T05:24:20;4.81;4.59;4.14;3.40;27.17;27.16;27.09;26.52;22.48;0.64
83101;SPS30;72973;51.784;4.660;2024-03-25T05:26:47;4.71;4.48;4.04;3.31;26.40;26.39;26.32;25.76;21.81;0.65
83101;SPS30;72973;51.784;4.660;2024-03-25T05:29:13;4.56;4.32;3.84;3.09;24.63;24.62;24.55;23.95;20.15;0.67
83101;SPS30;72973;51.784;4.660;2024-03-25T05:31:39;5.40;5.13;4.61;3.76;30.03;30.02;29.94;29.27;24.75;0.66
83101;SPS30;72973;51.784;4.660;2024-03-25T05:34:25;4.83;4.65;4.31;3.69;29.46;29.45;29.39;28.95;24.83;0.63
83101;SPS30;72973;51.784;4.660;2024-03-25T05:36:52;4.64;4.49;4.21;3.66;29.22;29.22;29.17;28.79;24.81;0.59
83101;SPS30;72973;51.784;4.660;2024-03-25T05:39:19;4.63;4.50;4.27;3.76;30.01;30.00;29.96;29.63;25.63;0.57
83101;SPS30;72973;51.784;4.660;2024-03-25T05:41:46;5.49;5.34;5.03;4.41;35.20;35.19;35.14;34.72;29.98;0.58
83101;SPS30;72973;51.784;4.660;2024-03-25T05:44:13;4.84;4.73;4.52;4.03;32.15;32.15;32.11;31.80;27.59;0.58
83101;SPS30;72973;51.784;4.660;2024-03-25T05:46:40;4.98;4.88;4.68;4.19;33.48;33.47;33.43;33.14;28.80;0.57
83101;SPS30;72973;51.784;4.660;2024-03-25T05:49:06;5.36;5.24;5.01;4.48;35.74;35.73;35.69;35.36;30.69;0.57
83101;SPS30;72973;51.784;4.660;2024-03-25T05:51:33;5.56;5.42;5.15;4.56;36.41;36.40;36.35;35.97;31.16;0.60
83101;SPS30;72973;51.784;4.660;2024-03-25T05:53:59;5.88;5.76;5.52;4.95;39.52;39.51;39.47;39.13;34.00;0.58
83101;SPS30;72973;51.784;4.660;2024-03-25T05:56:26;6.94;6.80;6.52;5.85;46.68;46.67;46.62;46.21;40.16;0.56
83101;SPS30;72973;51.784;4.660;2024-03-25T05:58:56;7.93;7.81;7.56;6.87;54.88;54.87;54.82;54.44;47.48;0.54
83101;SPS30;72973;51.784;4.660;2024-03-25T06:01:23;7.39;7.28;7.07;6.45;51.49;51.48;51.44;51.10;44.61;0.56
83101;SPS30;72973;51.784;4.660;2024-03-25T06:03:49;6.52;6.43;6.24;5.69;45.38;45.38;45.34;45.04;39.30;0.56
83101;SPS30;72973;51.784;4.660;2024-03-25T06:06:16;6.94;6.84;6.66;6.08;48.57;48.56;48.52;48.22;42.11;0.57
83101;SPS30;72973;51.784;4.660;2024-03-25T06:08:43;6.56;6.49;6.34;5.83;46.53;46.52;46.49;46.24;40.44;0.56
83101;SPS30;72973;51.784;4.660;2024-03-25T06:11:10;6.28;6.17;5.97;5.41;43.16;43.15;43.12;42.80;37.30;0.57
83101;SPS30;72973;51.784;4.660;2024-03-25T06:13:36;6.25;6.17;6.02;5.53;44.11;44.10;44.07;43.82;38.30;0.56
83101;SPS30;72973;51.784;4.660;2024-03-25T06:16:03;7.09;7.04;6.92;6.41;51.19;51.19;51.16;50.93;44.64;0.56
83101;SPS30;72973;51.784;4.660;2024-03-25T06:18:29;7.71;7.66;7.56;7.03;56.08;56.07;56.05;55.83;48.97;0.55
83101;SPS30;72973;51.784;4.660;2024-03-25T06:20:55;8.34;8.28;8.17;7.59;60.63;60.62;60.59;60.35;52.94;0.55
83101;SPS30;72973;51.784;4.660;2024-03-25T06:23:31;8.39;8.35;8.27;7.73;61.73;61.73;61.70;61.50;54.03;0.54
83101;SPS30;72973;51.784;4.660;2024-03-25T06:25:57;8.65;8.62;8.56;8.02;64.03;64.02;64.00;63.81;56.09;0.53
83101;SPS30;72973;51.784;4.660;2024-03-25T06:28:24;9.16;9.12;9.04;8.45;67.45;67.44;67.42;67.20;59.03;0.54
83101;SPS30;72973;51.784;4.660;2024-03-25T06:30:51;9.93;9.88;9.77;9.12;72.79;72.78;72.75;72.50;63.65;0.54
83101;SPS30;72973;51.784;4.660;2024-03-25T06:33:36;12.64;12.61;12.55;11.81;94.27;94.25;94.23;93.99;82.69;0.52
83101;SPS30;72973;51.784;4.660;2024-03-25T06:36:21;12.98;12.96;12.93;12.18;97.27;97.26;97.23;97.02;85.39;0.51
83101;SPS30;72973;51.784;4.660;2024-03-25T06:38:48;12.64;12.63;12.61;11.91;95.07;95.05;95.03;94.84;83.52;0.50
83101;SPS30;72973;51.784;4.660;2024-03-25T06:41:14;13.11;13.07;13.00;12.21;97.45;97.44;97.41;97.15;85.43;0.53
83101;SPS30;72973;51.784;4.660;2024-03-25T06:43:41;13.35;13.33;13.30;12.53;100.05;100.04;100.01;99.79;87.84;0.51
83101;SPS30;72973;51.784;4.660;2024-03-25T06:46:07;14.33;14.32;14.31;13.51;107.88;107.87;107.84;107.63;94.78;0.50
83101;SPS30;72973;51.784;4.660;2024-03-25T06:48:34;15.33;15.32;15.31;14.46;115.45;115.43;115.41;115.19;101.45;0.49
83101;SPS30;72973;51.784;4.660;2024-03-25T06:51:00;16.32;16.30;16.26;15.32;122.34;122.32;122.29;122.02;107.41;0.51
83101;SPS30;72973;51.784;4.660;2024-03-25T06:53:28;16.12;16.10;16.07;15.16;121.06;121.05;121.02;120.77;106.33;0.51
83101;SPS30;72973;51.784;4.660;2024-03-25T06:55:55;16.59;16.58;16.56;15.64;124.83;124.81;124.78;124.54;109.67;0.50
83101;SPS30;72973;51.784;4.660;2024-03-25T06:58:23;16.29;16.28;16.26;15.35;122.56;122.55;122.52;122.28;107.68;0.49
83101;SPS30;72973;51.784;4.660;2024-03-25T07:00:52;15.97;15.95;15.91;15.01;119.81;119.79;119.76;119.51;105.21;0.51
83101;SPS30;72973;51.784;4.660;2024-03-25T07:03:19;16.54;16.53;16.52;15.61;124.60;124.59;124.56;124.32;109.50;0.50
83101;SPS30;72973;51.784;4.660;2024-03-25T07:05:47;16.46;16.45;16.42;15.51;123.82;123.80;123.77;123.53;108.78;0.50
83101;SPS30;72973;51.784;4.660;2024-03-25T07:08:15;16.35;16.33;16.30;15.38;122.76;122.74;122.71;122.46;107.81;0.51
83101;SPS30;72973;51.784;4.660;2024-03-25T07:10:42;15.67;15.67;15.66;14.79;118.11;118.10;118.07;117.85;103.80;0.49
83101;SPS30;72973;51.784;4.660;2024-03-25T07:13:08;16.07;16.07;16.05;15.17;121.10;121.09;121.06;120.83;106.42;0.49
83101;SPS30;72973;51.784;4.660;2024-03-25T07:15:35;15.91;15.89;15.85;14.94;119.27;119.25;119.22;118.96;104.71;0.52
83101;SPS30;72973;51.784;4.660;2024-03-25T07:18:01;16.02;16.02;16.00;15.12;120.72;120.70;120.67;120.44;106.08;0.49
83101;SPS30;72973;51.784;4.660;2024-03-25T07:20:28;16.49;16.48;16.47;15.56;124.20;124.18;124.16;123.92;109.13;0.50
83101;SPS30;72973;51.784;4.660;2024-03-25T07:22:54;16.18;16.17;16.13;15.22;121.51;121.49;121.46;121.21;106.71;0.51
83101;SPS30;72973;51.784;4.660;2024-03-25T07:25:24;16.38;16.37;16.34;15.42;123.07;123.05;123.03;122.77;108.10;0.50
83101;SPS30;72973;51.784;4.660;2024-03-25T07:27:51;15.78;15.76;15.74;14.86;118.67;118.66;118.63;118.39;104.26;0.50
83101;SPS30;72973;51.784;4.660;2024-03-25T07:30:21;16.15;16.14;16.12;15.22;121.54;121.53;121.50;121.26;106.79;0.50
83101;SPS30;72973;51.784;4.660;2024-03-25T07:32:57;15.66;15.61;15.52;14.57;116.34;116.32;116.28;115.97;101.98;0.52
83101;SPS30;72973;51.784;4.660;2024-03-25T07:35:24;15.37;15.36;15.35;14.49;115.70;115.68;115.66;115.43;101.65;0.49
83101;SPS30;72973;51.784;4.660;2024-03-25T07:37:51;16.14;16.11;16.05;15.11;120.65;120.63;120.60;120.32;105.88;0.52
83101;SPS30;72973;51.784;4.660;2024-03-25T07:40:21;16.64;16.56;16.39;15.30;122.17;122.15;122.10;121.69;106.87;0.54
83101;SPS30;72973;51.784;4.660;2024-03-25T07:42:48;16.34;16.32;16.27;15.33;122.37;122.35;122.32;122.05;107.42;0.51
83101;SPS30;72973;51.784;4.660;2024-03-25T07:45:15;16.00;15.98;15.92;15.00;119.77;119.75;119.72;119.45;105.13;0.51
83101;SPS30;72973;51.784;4.660;2024-03-25T07:47:41;16.67;16.64;16.58;15.61;124.63;124.62;124.58;124.29;109.37;0.51
83101;SPS30;72973;51.784;4.660;2024-03-25T07:50:08;16.78;16.75;16.69;15.71;125.45;125.43;125.40;125.11;110.09;0.50
83101;SPS30;72973;51.784;4.660;2024-03-25T07:52:34;16.99;16.94;16.85;15.84;126.43;126.41;126.38;126.05;110.86;0.52
83101;SPS30;72973;51.784;4.660;2024-03-25T07:55:07;17.17;17.13;17.05;16.03;127.95;127.93;127.90;127.57;112.22;0.52
83101;SPS30;72973;51.784;4.660;2024-03-25T07:57:34;16.69;16.67;16.63;15.68;125.19;125.17;125.14;124.87;109.92;0.50
83101;SPS30;72973;51.784;4.660;2024-03-25T08:00:00;17.48;17.46;17.42;16.43;131.17;131.15;131.12;130.84;115.18;0.51
83101;SPS30;72973;51.784;4.660;2024-03-25T08:02:40;17.15;17.13;17.07;16.08;128.40;128.39;128.35;128.06;112.71;0.51
83101;SPS30;72973;51.784;4.660;2024-03-25T08:05:06;17.04;17.01;16.96;15.97;127.52;127.51;127.47;127.18;111.93;0.51
83101;SPS30;72973;51.784;4.660;2024-03-25T08:07:33;17.23;17.20;17.14;16.14;128.82;128.80;128.77;128.47;113.05;0.51
83101;SPS30;72973;51.784;4.660;2024-03-25T08:09:59;17.49;17.40;17.24;16.12;128.66;128.64;128.59;128.17;112.59;0.55
83101;SPS30;72973;51.784;4.660;2024-03-25T08:12:25;16.93;16.90;16.84;15.86;126.62;126.60;126.57;126.27;111.13;0.50
83101;SPS30;72973;51.784;4.660;2024-03-25T08:14:52;17.21;17.19;17.16;16.20;129.30;129.28;129.25;128.98;113.56;0.50
83101;SPS30;72973;51.784;4.660;2024-03-25T08:17:18;17.72;17.68;17.62;16.58;132.38;132.37;132.33;132.02;116.17;0.52
83101;SPS30;72973;51.784;4.660;2024-03-25T08:19:44;18.41;18.34;18.21;17.07;136.28;136.26;136.21;135.81;119.38;0.53
83101;SPS30;72973;51.784;4.660;2024-03-25T08:22:11;18.58;18.48;18.28;17.06;136.20;136.18;136.12;135.64;119.10;0.55
83101;SPS30;72973;51.784;4.660;2024-03-25T08:24:37;18.94;18.88;18.75;17.58;140.33;140.31;140.26;139.86;122.95;0.53
83101;SPS30;72973;51.784;4.660;2024-03-25T08:27:04;19.16;19.12;19.04;17.91;142.98;142.96;142.92;142.56;125.43;0.52
83101;SPS30;72973;51.784;4.660;2024-03-25T08:29:30;19.48;19.40;19.24;18.02;143.87;143.84;143.79;143.36;125.98;0.54
83101;SPS30;72973;51.784;4.660;2024-03-25T08:31:57;19.48;19.40;19.23;17.99;143.59;143.56;143.51;143.06;125.69;0.54
83101;SPS30;72973;51.784;4.660;2024-03-25T08:34:23;20.20;20.10;19.91;18.61;148.54;148.52;148.46;147.97;129.97;0.54
83101;SPS30;72973;51.784;4.660;2024-03-25T08:36:50;20.39;20.29;20.10;18.78;149.96;149.94;149.88;149.39;131.22;0.54
83101;SPS30;72973;51.784;4.660;2024-03-25T08:39:16;19.77;19.72;19.64;18.47;147.49;147.47;147.42;147.06;129.38;0.52
83101;SPS30;72973;51.784;4.660;2024-03-25T08:41:42;21.86;21.72;21.45;19.97;159.45;159.42;159.35;158.75;139.31;0.55
83101;SPS30;72973;51.784;4.660;2024-03-25T08:44:09;20.21;20.14;20.02;18.78;149.96;149.94;149.89;149.47;131.43;0.53
83101;SPS30;72973;51.784;4.660;2024-03-25T08:46:35;20.64;20.54;20.36;19.05;152.08;152.05;152.00;151.52;133.12;0.54
83101;SPS30;72973;51.784;4.660;2024-03-25T08:49:02;20.43;20.34;20.17;18.88;150.70;150.67;150.62;150.15;131.93;0.53
83101;SPS30;72973;51.784;4.660;2024-03-25T08:51:29;23.27;23.06;22.66;20.97;167.39;167.36;167.27;166.50;145.88;0.57
83101;SPS30;72973;51.784;4.660;2024-03-25T08:53:55;30.59;30.38;29.97;27.87;222.52;222.49;222.38;221.51;194.32;0.56
83101;SPS30;72973;51.784;4.660;2024-03-25T08:56:21;34.05;33.71;33.04;30.48;243.33;243.28;243.14;241.93;211.80;0.57
83101;SPS30;72973;51.784;4.660;2024-03-25T08:58:48;36.83;36.34;35.37;32.33;258.12;258.06;257.88;256.28;223.85;0.58
83101;SPS30;72973;51.784;4.660;2024-03-25T09:01:14;36.17;35.81;35.09;32.37;258.40;258.35;258.20;256.91;224.91;0.56
83101;SPS30;72973;51.784;4.660;2024-03-25T09:03:42;35.72;35.37;34.69;32.02;255.61;255.57;255.42;254.17;222.56;0.57